sensor_id;sensor_type;location;lat;lon;timestamp;temperature;humidity
24148;DHT22;12309;51.450;-2.624;2022-11-15T00:00:33;12.40;99.90
24148;DHT22;12309;51.450;-2.624;2022-11-15T00:02:58;12.40;99.90
24148;DHT22;12309;51.450;-2.624;2022-11-15T00:05:24;12.40;99.90
24148;DHT22;12309;51.450;-2.624;2022-11-15T00:07:50;12.40;99.90
24148;DHT22;12309;51.450;-2.624;2022-11-15T00:10:16;12.50;99.90
24148;DHT22;12309;51.450;-2.624;2022-11-15T00:12:41;12.50;99.90
24148;DHT22;12309;51.450;-2.624;2022-11-15T00:15:07;12.40;99.90
24148;DHT22;12309;51.450;-2.624;2022-11-15T00:17:33;12.50;99.90
24148;DHT22;12309;51.450;-2.624;2022-11-15T00:19:58;12.40;99.90
24148;DHT22;12309;51.450;-2.624;2022-11-15T00:22:24;12.40;99.90
24148;DHT22;12309;51.450;-2.624;2022-11-15T00:24:50;12.50;99.90
24148;DHT22;12309;51.450;-2.624;2022-11-15T00:29:41;12.50;99.90
24148;DHT22;12309;51.450;-2.624;2022-11-15T00:32:11;12.50;99.90
24148;DHT22;12309;51.450;-2.624;2022-11-15T00:34:37;12.50;99.90
24148;DHT22;12309;51.450;-2.624;2022-11-15T00:37:02;12.60;99.90
24148;DHT22;12309;51.450;-2.624;2022-11-15T00:39:28;12.60;99.90
24148;DHT22;12309;51.450;-2.624;2022-11-15T00:41:54;12.60;99.90
24148;DHT22;12309;51.450;-2.624;2022-11-15T00:46:45;12.50;99.90
24148;DHT22;12309;51.450;-2.624;2022-11-15T00:49:11;12.60;99.90
24148;DHT22;12309;51.450;-2.624;2022-11-15T00:51:36;12.60;99.90
24148;DHT22;12309;51.450;-2.624;2022-11-15T00:54:02;12.70;99.90
24148;DHT22;12309;51.450;-2.624;2022-11-15T00:56:28;16.40;99.90
24148;DHT22;12309;51.450;-2.624;2022-11-15T00:58:53;12.50;99.90
24148;DHT22;12309;51.450;-2.624;2022-11-15T01:01:19;12.70;99.90
24148;DHT22;12309;51.450;-2.624;2022-11-15T01:03:45;12.60;99.90
24148;DHT22;12309;51.450;-2.624;2022-11-15T01:06:10;12.60;99.90
24148;DHT22;12309;51.450;-2.624;2022-11-15T01:08:39;12.60;99.90
24148;DHT22;12309;51.450;-2.624;2022-11-15T01:11:10;12.60;99.90
24148;DHT22;12309;51.450;-2.624;2022-11-15T01:13:37;12.70;99.90
24148;DHT22;12309;51.450;-2.624;2022-11-15T01:16:08;12.70;99.90
24148;DHT22;12309;51.450;-2.624;2022-11-15T01:18:33;12.80;99.90
24148;DHT22;12309;51.450;-2.624;2022-11-15T01:20:59;12.70;99.90
24148;DHT22;12309;51.450;-2.624;2022-11-15T01:23:24;12.70;99.90
24148;DHT22;12309;51.450;-2.624;2022-11-15T01:28:16;12.00;99.90
24148;DHT22;12309;51.450;-2.624;2022-11-15T01:30:42;12.70;99.90
24148;DHT22;12309;51.450;-2.624;2022-11-15T01:33:07;12.70;99.90
24148;DHT22;12309;51.450;-2.624;2022-11-15T01:35:33;12.70;99.90
24148;DHT22;12309;51.450;-2.624;2022-11-15T01:37:58;12.70;99.90
24148;DHT22;12309;51.450;-2.624;2022-11-15T01:40:24;12.60;99.90
24148;DHT22;12309;51.450;-2.624;2022-11-15T01:42:50;12.60;99.90
24148;DHT22;12309;51.450;-2.624;2022-11-15T01:45:16;12.60;99.90
24148;DHT22;12309;51.450;-2.624;2022-11-15T01:47:46;12.60;99.90
24148;DHT22;12309;51.450;-2.624;2022-11-15T01:50:19;12.70;99.90
24148;DHT22;12309;51.450;-2.624;2022-11-15T01:52:46;12.60;99.90
24148;DHT22;12309;51.450;-2.624;2022-11-15T01:55:19;12.60;99.90
24148;DHT22;12309;51.450;-2.624;2022-11-15T01:57:49;12.60;99.90
24148;DHT22;12309;51.450;-2.624;2022-11-15T02:00:16;12.70;99.90
24148;DHT22;12309;51.450;-2.624;2022-11-15T02:02:42;12.60;99.90
24148;DHT22;12309;51.450;-2.624;2022-11-15T02:05:08;12.60;99.90
24148;DHT22;12309;51.450;-2.624;2022-11-15T02:07:35;12.60;99.90
24148;DHT22;12309;51.450;-2.624;2022-11-15T02:10:10;12.70;99.90
24148;DHT22;12309;51.450;-2.624;2022-11-15T02:12:36;12.70;99.90
24148;DHT22;12309;51.450;-2.624;2022-11-15T02:15:03;12.80;99.90
24148;DHT22;12309;51.450;-2.624;2022-11-15T02:17:37;12.70;99.90
24148;DHT22;12309;51.450;-2.624;2022-11-15T02:30:48;13.70;99.90
24148;DHT22;12309;51.450;-2.624;2022-11-15T02:33:59;12.60;99.90
24148;DHT22;12309;51.450;-2.624;2022-11-15T02:36:40;12.60;99.90
24148;DHT22;12309;51.450;-2.624;2022-11-15T02:39:35;12.40;99.90
24148;DHT22;12309;51.450;-2.624;2022-11-15T02:42:15;12.40;99.90
24148;DHT22;12309;51.450;-2.624;2022-11-15T02:45:04;12.50;99.90
24148;DHT22;12309;51.450;-2.624;2022-11-15T02:47:35;12.60;99.90
24148;DHT22;12309;51.450;-2.624;2022-11-15T02:50:09;12.50;99.90
24148;DHT22;12309;51.450;-2.624;2022-11-15T02:52:35;12.50;99.90
24148;DHT22;12309;51.450;-2.624;2022-11-15T02:55:02;12.40;99.90
24148;DHT22;12309;51.450;-2.624;2022-11-15T02:57:44;11.20;99.90
24148;DHT22;12309;51.450;-2.624;2022-11-15T03:00:14;12.40;99.90
24148;DHT22;12309;51.450;-2.624;2022-11-15T03:05:37;12.20;99.90
24148;DHT22;12309;51.450;-2.624;2022-11-15T03:13:44;12.20;99.90
24148;DHT22;12309;51.450;-2.624;2022-11-15T03:21:49;12.30;99.90
24148;DHT22;12309;51.450;-2.624;2022-11-15T03:24:19;12.20;99.90
24148;DHT22;12309;51.450;-2.624;2022-11-15T03:26:48;12.20;99.90
24148;DHT22;12309;51.450;-2.624;2022-11-15T03:29:19;12.30;99.90
24148;DHT22;12309;51.450;-2.624;2022-11-15T03:31:53;12.10;99.90
24148;DHT22;12309;51.450;-2.624;2022-11-15T03:34:28;12.20;99.90
24148;DHT22;12309;51.450;-2.624;2022-11-15T03:36:55;12.30;99.90
24148;DHT22;12309;51.450;-2.624;2022-11-15T03:39:21;12.40;99.90
24148;DHT22;12309;51.450;-2.624;2022-11-15T03:49:31;12.40;99.90
24148;DHT22;12309;51.450;-2.624;2022-11-15T03:51:58;12.40;99.90
24148;DHT22;12309;51.450;-2.624;2022-11-15T03:54:24;12.30;99.90
24148;DHT22;12309;51.450;-2.624;2022-11-15T03:56:50;12.40;99.90
24148;DHT22;12309;51.450;-2.624;2022-11-15T03:59:15;12.30;99.90
24148;DHT22;12309;51.450;-2.624;2022-11-15T04:01:41;12.40;99.90
24148;DHT22;12309;51.450;-2.624;2022-11-15T04:04:07;12.40;99.90
24148;DHT22;12309;51.450;-2.624;2022-11-15T04:06:32;12.40;99.90
24148;DHT22;12309;51.450;-2.624;2022-11-15T04:08:58;12.40;99.90
24148;DHT22;12309;51.450;-2.624;2022-11-15T04:11:23;12.40;99.90
24148;DHT22;12309;51.450;-2.624;2022-11-15T04:13:49;12.50;99.90
24148;DHT22;12309;51.450;-2.624;2022-11-15T04:16:14;12.80;99.90
24148;DHT22;12309;51.450;-2.624;2022-11-15T04:21:07;12.50;99.90
24148;DHT22;12309;51.450;-2.624;2022-11-15T04:23:52;12.50;99.90
24148;DHT22;12309;51.450;-2.624;2022-11-15T04:26:32;12.50;99.90
24148;DHT22;12309;51.450;-2.624;2022-11-15T04:28:58;12.50;99.90
24148;DHT22;12309;51.450;-2.624;2022-11-15T04:31:42;12.60;99.90
24148;DHT22;12309;51.450;-2.624;2022-11-15T04:34:08;12.20;99.90
24148;DHT22;12309;51.450;-2.624;2022-11-15T04:36:34;12.60;99.90
24148;DHT22;12309;51.450;-2.624;2022-11-15T04:39:18;12.50;99.90
24148;DHT22;12309;51.450;-2.624;2022-11-15T04:41:43;12.50;99.90
24148;DHT22;12309;51.450;-2.624;2022-11-15T04:44:09;12.60;99.90
24148;DHT22;12309;51.450;-2.624;2022-11-15T04:46:35;12.50;99.90
24148;DHT22;12309;51.450;-2.624;2022-11-15T04:49:00;12.60;99.90
24148;DHT22;12309;51.450;-2.624;2022-11-15T04:51:26;12.50;99.90
24148;DHT22;12309;51.450;-2.624;2022-11-15T04:53:52;12.70;99.90
24148;DHT22;12309;51.450;-2.624;2022-11-15T04:56:17;12.10;99.90
24148;DHT22;12309;51.450;-2.624;2022-11-15T04:58:43;12.60;99.90
24148;DHT22;12309;51.450;-2.624;2022-11-15T05:01:10;12.60;99.90
24148;DHT22;12309;51.450;-2.624;2022-11-15T05:03:36;12.60;99.90
24148;DHT22;12309;51.450;-2.624;2022-11-15T05:06:20;12.60;99.90
24148;DHT22;12309;51.450;-2.624;2022-11-15T05:11:11;12.60;99.90
24148;DHT22;12309;51.450;-2.624;2022-11-15T05:13:37;13.10;99.90
24148;DHT22;12309;51.450;-2.624;2022-11-15T05:16:03;12.60;99.90
24148;DHT22;12309;51.450;-2.624;2022-11-15T05:18:28;12.60;99.90
24148;DHT22;12309;51.450;-2.624;2022-11-15T05:20:54;12.60;99.90
24148;DHT22;12309;51.450;-2.624;2022-11-15T05:23:20;12.60;99.90
24148;DHT22;12309;51.450;-2.624;2022-11-15T05:25:45;12.50;99.90
24148;DHT22;12309;51.450;-2.624;2022-11-15T05:28:11;12.80;99.90
24148;DHT22;12309;51.450;-2.624;2022-11-15T05:30:36;12.70;99.90
24148;DHT22;12309;51.450;-2.624;2022-11-15T05:33:02;12.70;99.90
24148;DHT22;12309;51.450;-2.624;2022-11-15T05:35:41;12.90;99.90
24148;DHT22;12309;51.450;-2.624;2022-11-15T05:38:07;12.70;99.90
24148;DHT22;12309;51.450;-2.624;2022-11-15T05:40:34;12.80;99.90
24148;DHT22;12309;51.450;-2.624;2022-11-15T05:43:00;12.70;99.90
24148;DHT22;12309;51.450;-2.624;2022-11-15T05:45:28;12.80;99.90
24148;DHT22;12309;51.450;-2.624;2022-11-15T05:47:55;12.80;99.90
24148;DHT22;12309;51.450;-2.624;2022-11-15T05:50:22;12.70;99.90
24148;DHT22;12309;51.450;-2.624;2022-11-15T05:52:47;12.70;99.90
24148;DHT22;12309;51.450;-2.624;2022-11-15T05:55:14;12.70;99.90
24148;DHT22;12309;51.450;-2.624;2022-11-15T05:57:40;13.20;99.90
24148;DHT22;12309;51.450;-2.624;2022-11-15T06:00:06;12.70;99.90
24148;DHT22;12309;51.450;-2.624;2022-11-15T06:02:33;12.80;99.90
24148;DHT22;12309;51.450;-2.624;2022-11-15T06:04:59;12.70;99.90
24148;DHT22;12309;51.450;-2.624;2022-11-15T06:07:24;12.60;99.90
24148;DHT22;12309;51.450;-2.624;2022-11-15T06:09:50;12.50;99.90
24148;DHT22;12309;51.450;-2.624;2022-11-15T06:12:15;12.80;99.90
24148;DHT22;12309;51.450;-2.624;2022-11-15T06:14:41;12.60;99.90
24148;DHT22;12309;51.450;-2.624;2022-11-15T06:17:07;12.70;99.90
24148;DHT22;12309;51.450;-2.624;2022-11-15T06:19:32;12.70;99.90
24148;DHT22;12309;51.450;-2.624;2022-11-15T06:22:01;12.60;99.90
24148;DHT22;12309;51.450;-2.624;2022-11-15T06:24:27;12.60;99.90
24148;DHT22;12309;51.450;-2.624;2022-11-15T06:26:53;12.70;99.90
24148;DHT22;12309;51.450;-2.624;2022-11-15T06:29:18;12.70;99.90
24148;DHT22;12309;51.450;-2.624;2022-11-15T06:31:44;12.70;99.90
24148;DHT22;12309;51.450;-2.624;2022-11-15T06:34:10;12.70;99.90
24148;DHT22;12309;51.450;-2.624;2022-11-15T06:36:36;12.80;99.90
24148;DHT22;12309;51.450;-2.624;2022-11-15T06:39:03;12.80;99.90
24148;DHT22;12309;51.450;-2.624;2022-11-15T06:41:29;12.80;99.90
24148;DHT22;12309;51.450;-2.624;2022-11-15T06:43:54;12.70;99.90
24148;DHT22;12309;51.450;-2.624;2022-11-15T06:46:20;12.90;99.90
24148;DHT22;12309;51.450;-2.624;2022-11-15T06:48:46;12.50;99.90
24148;DHT22;12309;51.450;-2.624;2022-11-15T06:51:11;12.80;99.90
24148;DHT22;12309;51.450;-2.624;2022-11-15T06:53:37;12.80;99.90
24148;DHT22;12309;51.450;-2.624;2022-11-15T06:56:05;12.90;99.90
24148;DHT22;12309;51.450;-2.624;2022-11-15T06:58:31;12.90;99.90
24148;DHT22;12309;51.450;-2.624;2022-11-15T07:01:01;12.90;99.90
24148;DHT22;12309;51.450;-2.624;2022-11-15T07:03:27;13.00;99.90
24148;DHT22;12309;51.450;-2.624;2022-11-15T07:05:54;13.00;99.90
24148;DHT22;12309;51.450;-2.624;2022-11-15T07:08:22;13.00;99.90
24148;DHT22;12309;51.450;-2.624;2022-11-15T07:10:48;13.10;99.90
24148;DHT22;12309;51.450;-2.624;2022-11-15T07:13:14;13.30;99.90
24148;DHT22;12309;51.450;-2.624;2022-11-15T07:15:39;13.20;99.90
24148;DHT22;12309;51.450;-2.624;2022-11-15T07:18:05;13.10;99.90
24148;DHT22;12309;51.450;-2.624;2022-11-15T07:20:31;13.30;99.90
24148;DHT22;12309;51.450;-2.624;2022-11-15T07:23:01;13.20;99.90
24148;DHT22;12309;51.450;-2.624;2022-11-15T07:25:27;13.30;99.90
24148;DHT22;12309;51.450;-2.624;2022-11-15T07:27:57;12.90;99.90
24148;DHT22;12309;51.450;-2.624;2022-11-15T07:30:23;13.30;99.90
24148;DHT22;12309;51.450;-2.624;2022-11-15T07:32:56;13.30;99.90
24148;DHT22;12309;51.450;-2.624;2022-11-15T07:35:23;13.10;99.90
24148;DHT22;12309;51.450;-2.624;2022-11-15T07:37:56;13.10;99.90
24148;DHT22;12309;51.450;-2.624;2022-11-15T07:40:23;13.30;99.90
24148;DHT22;12309;51.450;-2.624;2022-11-15T07:42:48;13.30;99.90
24148;DHT22;12309;51.450;-2.624;2022-11-15T07:45:22;13.30;99.90
24148;DHT22;12309;51.450;-2.624;2022-11-15T07:47:49;13.20;99.90
24148;DHT22;12309;51.450;-2.624;2022-11-15T07:50:18;13.20;99.90
24148;DHT22;12309;51.450;-2.624;2022-11-15T07:52:44;13.20;99.90
24148;DHT22;12309;51.450;-2.624;2022-11-15T07:55:10;13.30;99.90
24148;DHT22;12309;51.450;-2.624;2022-11-15T07:57:36;13.30;99.90
24148;DHT22;12309;51.450;-2.624;2022-11-15T08:00:06;13.30;99.90
24148;DHT22;12309;51.450;-2.624;2022-11-15T08:02:31;13.30;99.90
24148;DHT22;12309;51.450;-2.624;2022-11-15T08:04:57;13.30;99.90
24148;DHT22;12309;51.450;-2.624;2022-11-15T08:09:49;13.40;99.90
24148;DHT22;12309;51.450;-2.624;2022-11-15T08:12:14;13.40;99.90
24148;DHT22;12309;51.450;-2.624;2022-11-15T08:14:40;13.40;99.90
24148;DHT22;12309;51.450;-2.624;2022-11-15T08:17:05;13.40;99.90
24148;DHT22;12309;51.450;-2.624;2022-11-15T08:19:31;13.50;99.90
24148;DHT22;12309;51.450;-2.624;2022-11-15T08:21:57;13.50;99.90
24148;DHT22;12309;51.450;-2.624;2022-11-15T08:24:22;13.60;99.90
24148;DHT22;12309;51.450;-2.624;2022-11-15T08:26:48;13.50;99.90
24148;DHT22;12309;51.450;-2.624;2022-11-15T08:29:13;13.60;99.90
24148;DHT22;12309;51.450;-2.624;2022-11-15T08:31:39;13.60;99.90
24148;DHT22;12309;51.450;-2.624;2022-11-15T08:34:05;13.30;99.90
24148;DHT22;12309;51.450;-2.624;2022-11-15T08:36:31;13.80;99.90
24148;DHT22;12309;51.450;-2.624;2022-11-15T08:38:57;13.70;99.90
24148;DHT22;12309;51.450;-2.624;2022-11-15T08:41:31;13.80;99.90
24148;DHT22;12309;51.450;-2.624;2022-11-15T08:43:57;13.80;99.90
24148;DHT22;12309;51.450;-2.624;2022-11-15T08:46:23;13.80;99.90
24148;DHT22;12309;51.450;-2.624;2022-11-15T08:48:49;12.70;99.90
24148;DHT22;12309;51.450;-2.624;2022-11-15T08:51:15;12.80;99.90
24148;DHT22;12309;51.450;-2.624;2022-11-15T08:53:41;12.50;99.90
24148;DHT22;12309;51.450;-2.624;2022-11-15T08:56:11;12.40;99.90
24148;DHT22;12309;51.450;-2.624;2022-11-15T08:58:37;12.40;99.90
24148;DHT22;12309;51.450;-2.624;2022-11-15T09:01:04;12.40;99.90
24148;DHT22;12309;51.450;-2.624;2022-11-15T09:03:30;12.40;99.90
24148;DHT22;12309;51.450;-2.624;2022-11-15T09:06:00;12.40;99.90
24148;DHT22;12309;51.450;-2.624;2022-11-15T09:08:30;12.30;99.90
24148;DHT22;12309;51.450;-2.624;2022-11-15T09:10:56;12.40;99.90
24148;DHT22;12309;51.450;-2.624;2022-11-15T09:13:22;12.10;99.90
24148;DHT22;12309;51.450;-2.624;2022-11-15T09:15:47;11.90;99.90
24148;DHT22;12309;51.450;-2.624;2022-11-15T09:18:13;11.90;99.90
24148;DHT22;12309;51.450;-2.624;2022-11-15T09:20:39;11.90;99.90
24148;DHT22;12309;51.450;-2.624;2022-11-15T09:23:05;11.80;99.90
24148;DHT22;12309;51.450;-2.624;2022-11-15T09:27:57;11.80;99.90
24148;DHT22;12309;51.450;-2.624;2022-11-15T09:30:24;11.70;99.90
24148;DHT22;12309;51.450;-2.624;2022-11-15T09:32:50;12.60;99.90
24148;DHT22;12309;51.450;-2.624;2022-11-15T09:35:16;11.90;99.90
24148;DHT22;12309;51.450;-2.624;2022-11-15T09:37:41;11.60;99.90
24148;DHT22;12309;51.450;-2.624;2022-11-15T09:40:13;11.80;99.90
24148;DHT22;12309;51.450;-2.624;2022-11-15T09:45:33;11.70;99.90
24148;DHT22;12309;51.450;-2.624;2022-11-15T09:50:50;11.70;99.90
24148;DHT22;12309;51.450;-2.624;2022-11-15T09:53:38;11.70;99.90
24148;DHT22;12309;51.450;-2.624;2022-11-15T09:56:16;11.70;99.90
24148;DHT22;12309;51.450;-2.624;2022-11-15T10:04:29;11.50;99.90
24148;DHT22;12309;51.450;-2.624;2022-11-15T10:07:46;11.30;99.90
24148;DHT22;12309;51.450;-2.624;2022-11-15T10:12:22;11.50;99.90
24148;DHT22;12309;51.450;-2.624;2022-11-15T10:14:58;11.50;99.90
24148;DHT22;12309;51.450;-2.624;2022-11-15T10:18:04;11.60;99.90
24148;DHT22;12309;51.450;-2.624;2022-11-15T10:20:37;11.50;99.90
24148;DHT22;12309;51.450;-2.624;2022-11-15T10:23:11;11.30;99.90
24148;DHT22;12309;51.450;-2.624;2022-11-15T10:28:20;11.50;99.90
24148;DHT22;12309;51.450;-2.624;2022-11-15T10:30:51;11.50;99.90
24148;DHT22;12309;51.450;-2.624;2022-11-15T10:33:38;11.40;99.90
24148;DHT22;12309;51.450;-2.624;2022-11-15T10:41:34;11.60;99.90
24148;DHT22;12309;51.450;-2.624;2022-11-15T10:46:32;11.70;99.90
24148;DHT22;12309;51.450;-2.624;2022-11-15T10:49:13;11.90;99.90
24148;DHT22;12309;51.450;-2.624;2022-11-15T10:51:51;12.00;99.90
24148;DHT22;12309;51.450;-2.624;2022-11-15T10:54:27;12.00;99.90
24148;DHT22;12309;51.450;-2.624;2022-11-15T10:56:57;12.00;99.90
24148;DHT22;12309;51.450;-2.624;2022-11-15T10:59:29;12.10;99.90
24148;DHT22;12309;51.450;-2.624;2022-11-15T11:01:56;12.30;99.90
24148;DHT22;12309;51.450;-2.624;2022-11-15T11:04:22;12.50;99.90
24148;DHT22;12309;51.450;-2.624;2022-11-15T11:06:59;13.10;99.90
24148;DHT22;12309;51.450;-2.624;2022-11-15T11:11:59;13.80;99.90
24148;DHT22;12309;51.450;-2.624;2022-11-15T11:14:28;13.80;99.90
24148;DHT22;12309;51.450;-2.624;2022-11-15T11:25:33;12.80;99.90
24148;DHT22;12309;51.450;-2.624;2022-11-15T11:28:19;12.80;99.90
24148;DHT22;12309;51.450;-2.624;2022-11-15T11:33:20;13.60;99.90
24148;DHT22;12309;51.450;-2.624;2022-11-15T11:41:04;14.30;99.90
24148;DHT22;12309;51.450;-2.624;2022-11-15T11:49:06;13.70;99.90
24148;DHT22;12309;51.450;-2.624;2022-11-15T11:51:43;13.60;99.90
24148;DHT22;12309;51.450;-2.624;2022-11-15T11:56:48;13.10;99.90
24148;DHT22;12309;51.450;-2.624;2022-11-15T11:59:28;13.10;99.90
24148;DHT22;12309;51.450;-2.624;2022-11-15T12:01:57;13.20;99.90
24148;DHT22;12309;51.450;-2.624;2022-11-15T12:04:42;13.10;99.90
24148;DHT22;12309;51.450;-2.624;2022-11-15T12:07:15;12.90;99.90
24148;DHT22;12309;51.450;-2.624;2022-11-15T12:10:03;13.00;99.90
24148;DHT22;12309;51.450;-2.624;2022-11-15T12:12:47;13.10;99.90
24148;DHT22;12309;51.450;-2.624;2022-11-15T12:15:15;13.80;99.90
24148;DHT22;12309;51.450;-2.624;2022-11-15T12:17:42;14.40;99.90
24148;DHT22;12309;51.450;-2.624;2022-11-15T12:20:17;14.40;99.90
24148;DHT22;12309;51.450;-2.624;2022-11-15T12:23:05;15.20;99.90
24148;DHT22;12309;51.450;-2.624;2022-11-15T12:25:42;17.60;99.90
24148;DHT22;12309;51.450;-2.624;2022-11-15T12:31:11;18.70;99.90
24148;DHT22;12309;51.450;-2.624;2022-11-15T12:33:44;17.20;99.90
24148;DHT22;12309;51.450;-2.624;2022-11-15T12:36:30;16.10;99.90
24148;DHT22;12309;51.450;-2.624;2022-11-15T12:39:01;15.00;99.90
24148;DHT22;12309;51.450;-2.624;2022-11-15T12:41:41;14.80;99.90
24148;DHT22;12309;51.450;-2.624;2022-11-15T12:44:13;14.90;99.90
24148;DHT22;12309;51.450;-2.624;2022-11-15T12:59:58;14.10;99.90
24148;DHT22;12309;51.450;-2.624;2022-11-15T13:17:52;14.60;99.90
24148;DHT22;12309;51.450;-2.624;2022-11-15T13:20:31;14.80;99.90
24148;DHT22;12309;51.450;-2.624;2022-11-15T13:23:09;14.60;99.90
24148;DHT22;12309;51.450;-2.624;2022-11-15T13:30:36;14.90;99.90
24148;DHT22;12309;51.450;-2.624;2022-11-15T13:33:13;13.40;99.90
24148;DHT22;12309;51.450;-2.624;2022-11-15T13:35:40;13.40;99.90
24148;DHT22;12309;51.450;-2.624;2022-11-15T13:38:11;13.30;99.90
24148;DHT22;12309;51.450;-2.624;2022-11-15T13:40:42;13.20;99.90
24148;DHT22;12309;51.450;-2.624;2022-11-15T13:46:45;13.10;99.90
24148;DHT22;12309;51.450;-2.624;2022-11-15T13:48:58;13.30;99.90
24148;DHT22;12309;51.450;-2.624;2022-11-15T13:54:18;13.40;99.90
24148;DHT22;12309;51.450;-2.624;2022-11-15T13:56:49;13.40;99.90
24148;DHT22;12309;51.450;-2.624;2022-11-15T13:59:27;13.30;99.90
24148;DHT22;12309;51.450;-2.624;2022-11-15T14:01:58;13.30;99.90
24148;DHT22;12309;51.450;-2.624;2022-11-15T14:04:26;13.20;99.90
24148;DHT22;12309;51.450;-2.624;2022-11-15T14:06:57;13.20;99.90
24148;DHT22;12309;51.450;-2.624;2022-11-15T14:09:39;13.20;99.90
24148;DHT22;12309;51.450;-2.624;2022-11-15T14:12:35;13.30;99.90
24148;DHT22;12309;51.450;-2.624;2022-11-15T14:15:38;13.30;99.90
24148;DHT22;12309;51.450;-2.624;2022-11-15T14:18:05;13.20;99.90
24148;DHT22;12309;51.450;-2.624;2022-11-15T14:20:34;13.10;99.90
24148;DHT22;12309;51.450;-2.624;2022-11-15T14:23:24;12.90;99.90
24148;DHT22;12309;51.450;-2.624;2022-11-15T14:25:57;13.10;99.90
24148;DHT22;12309;51.450;-2.624;2022-11-15T14:30:51;13.20;99.90
24148;DHT22;12309;51.450;-2.624;2022-11-15T14:33:23;14.50;99.90
24148;DHT22;12309;51.450;-2.624;2022-11-15T14:35:50;14.40;99.90
24148;DHT22;12309;51.450;-2.624;2022-11-15T14:38:16;14.70;99.90
24148;DHT22;12309;51.450;-2.624;2022-11-15T14:40:42;15.10;99.90
24148;DHT22;12309;51.450;-2.624;2022-11-15T14:43:12;15.80;99.90
24148;DHT22;12309;51.450;-2.624;2022-11-15T14:45:39;16.70;99.90
24148;DHT22;12309;51.450;-2.624;2022-11-15T14:48:05;16.30;99.90
24148;DHT22;12309;51.450;-2.624;2022-11-15T14:50:32;15.70;99.90
24148;DHT22;12309;51.450;-2.624;2022-11-15T14:52:58;15.10;99.90
24148;DHT22;12309;51.450;-2.624;2022-11-15T14:55:34;14.80;99.90
24148;DHT22;12309;51.450;-2.624;2022-11-15T14:58:05;14.50;99.90
24148;DHT22;12309;51.450;-2.624;2022-11-15T15:00:33;14.00;99.90
24148;DHT22;12309;51.450;-2.624;2022-11-15T15:02:59;13.70;99.90
24148;DHT22;12309;51.450;-2.624;2022-11-15T15:05:38;13.50;99.90
24148;DHT22;12309;51.450;-2.624;2022-11-15T15:08:04;13.30;99.90
24148;DHT22;12309;51.450;-2.624;2022-11-15T15:10:38;13.10;99.90
24148;DHT22;12309;51.450;-2.624;2022-11-15T15:13:05;13.00;99.90
24148;DHT22;12309;51.450;-2.624;2022-11-15T15:15:37;12.90;99.90
24148;DHT22;12309;51.450;-2.624;2022-11-15T15:18:04;12.90;99.90
24148;DHT22;12309;51.450;-2.624;2022-11-15T15:20:31;12.70;99.90
24148;DHT22;12309;51.450;-2.624;2022-11-15T15:22:57;12.70;99.90
24148;DHT22;12309;51.450;-2.624;2022-11-15T15:25:27;12.40;99.90
24148;DHT22;12309;51.450;-2.624;2022-11-15T15:27:54;12.40;99.90
24148;DHT22;12309;51.450;-2.624;2022-11-15T15:30:21;12.40;99.90
24148;DHT22;12309;51.450;-2.624;2022-11-15T15:32:46;12.00;99.90
24148;DHT22;12309;51.450;-2.624;2022-11-15T15:35:13;12.00;99.90
24148;DHT22;12309;51.450;-2.624;2022-11-15T15:37:40;11.80;99.90
24148;DHT22;12309;51.450;-2.624;2022-11-15T15:40:27;11.60;99.90
24148;DHT22;12309;51.450;-2.624;2022-11-15T15:42:53;11.70;99.90
24148;DHT22;12309;51.450;-2.624;2022-11-15T15:45:19;11.60;99.90
24148;DHT22;12309;51.450;-2.624;2022-11-15T15:47:45;11.60;99.90
24148;DHT22;12309;51.450;-2.624;2022-11-15T15:50:14;11.40;99.90
24148;DHT22;12309;51.450;-2.624;2022-11-15T15:52:41;11.60;99.90
24148;DHT22;12309;51.450;-2.624;2022-11-15T15:55:07;11.60;99.90
24148;DHT22;12309;51.450;-2.624;2022-11-15T15:57:34;11.50;99.90
24148;DHT22;12309;51.450;-2.624;2022-11-15T15:59:59;11.30;99.90
24148;DHT22;12309;51.450;-2.624;2022-11-15T16:02:25;11.40;99.90
24148;DHT22;12309;51.450;-2.624;2022-11-15T16:04:50;11.50;99.90
24148;DHT22;12309;51.450;-2.624;2022-11-15T16:07:21;11.50;99.90
24148;DHT22;12309;51.450;-2.624;2022-11-15T16:09:46;11.50;99.90
24148;DHT22;12309;51.450;-2.624;2022-11-15T16:12:34;11.50;99.90
24148;DHT22;12309;51.450;-2.624;2022-11-15T16:15:01;11.60;99.90
24148;DHT22;12309;51.450;-2.624;2022-11-15T16:17:32;11.60;99.90
24148;DHT22;12309;51.450;-2.624;2022-11-15T16:19:59;11.50;99.90
24148;DHT22;12309;51.450;-2.624;2022-11-15T16:22:24;11.50;99.90
24148;DHT22;12309;51.450;-2.624;2022-11-15T16:24:50;11.50;99.90
24148;DHT22;12309;51.450;-2.624;2022-11-15T16:27:20;11.50;99.90
24148;DHT22;12309;51.450;-2.624;2022-11-15T16:29:47;11.40;99.90
24148;DHT22;12309;51.450;-2.624;2022-11-15T16:32:13;11.20;99.90
24148;DHT22;12309;51.450;-2.624;2022-11-15T16:34:39;11.20;99.90
24148;DHT22;12309;51.450;-2.624;2022-11-15T16:37:05;11.20;99.90
24148;DHT22;12309;51.450;-2.624;2022-11-15T16:39:31;11.10;99.90
24148;DHT22;12309;51.450;-2.624;2022-11-15T16:42:00;11.10;99.90
24148;DHT22;12309;51.450;-2.624;2022-11-15T16:44:27;11.00;99.90
24148;DHT22;12309;51.450;-2.624;2022-11-15T16:46:53;11.00;99.90
24148;DHT22;12309;51.450;-2.624;2022-11-15T16:49:20;10.90;99.90
24148;DHT22;12309;51.450;-2.624;2022-11-15T16:51:47;10.40;99.90
24148;DHT22;12309;51.450;-2.624;2022-11-15T16:54:13;10.60;99.90
24148;DHT22;12309;51.450;-2.624;2022-11-15T16:56:40;10.70;99.90
24148;DHT22;12309;51.450;-2.624;2022-11-15T16:59:06;10.60;99.90
24148;DHT22;12309;51.450;-2.624;2022-11-15T17:01:36;10.60;99.90
24148;DHT22;12309;51.450;-2.624;2022-11-15T17:04:15;10.50;99.90
24148;DHT22;12309;51.450;-2.624;2022-11-15T17:06:44;10.50;99.90
24148;DHT22;12309;51.450;-2.624;2022-11-15T17:09:18;10.50;99.90
24148;DHT22;12309;51.450;-2.624;2022-11-15T17:11:44;10.70;99.90
24148;DHT22;12309;51.450;-2.624;2022-11-15T17:14:10;10.40;99.90
24148;DHT22;12309;51.450;-2.624;2022-11-15T17:16:36;10.40;99.90
24148;DHT22;12309;51.450;-2.624;2022-11-15T17:19:16;10.40;99.90
24148;DHT22;12309;51.450;-2.624;2022-11-15T17:21:43;10.40;99.90
24148;DHT22;12309;51.450;-2.624;2022-11-15T17:24:09;10.50;99.90
24148;DHT22;12309;51.450;-2.624;2022-11-15T17:26:35;10.50;99.90
24148;DHT22;12309;51.450;-2.624;2022-11-15T17:29:01;10.40;99.90
24148;DHT22;12309;51.450;-2.624;2022-11-15T17:31:28;10.50;99.90
24148;DHT22;12309;51.450;-2.624;2022-11-15T17:33:55;10.50;99.90
24148;DHT22;12309;51.450;-2.624;2022-11-15T17:36:21;10.60;99.90
24148;DHT22;12309;51.450;-2.624;2022-11-15T17:38:47;10.40;99.90
24148;DHT22;12309;51.450;-2.624;2022-11-15T17:41:17;10.40;99.90
24148;DHT22;12309;51.450;-2.624;2022-11-15T17:43:45;10.30;99.90
24148;DHT22;12309;51.450;-2.624;2022-11-15T17:46:13;10.20;99.90
24148;DHT22;12309;51.450;-2.624;2022-11-15T17:48:39;10.20;99.90
24148;DHT22;12309;51.450;-2.624;2022-11-15T17:51:06;10.20;99.90
24148;DHT22;12309;51.450;-2.624;2022-11-15T17:53:34;9.80;99.90